Strona główna
METAR-TAF:

METAR-TAF

Lotnisko :

Schaffen

Diest, Belgia

Szerokość geograficzna: 51-00N, Długość geograficzna: 005-04E, wysokość: 30 m

Aktualna obserwacja pogody

Raport powstał 49 minut temu, godzina 22:55 UTC
Wiatr 6 kt od południowo-południowy wschód
Temperatura 5°C
Wilgotność 87%
Ciśnienie 999 hPa
Widzialność 10 km lub więcej

METAR: EBDT 132255Z AUTO 16006KT 9999 BKN050/// BKN090/// 05/03 Q0999 BLU

czas: 00:44 (23:44 UTC)


TAF: brakujący

Obserwacja i prognoza pogody dla ponad 4000 lotnisk (raport METAR i TAF).

Dostępne stacje oznaczono żółtymi i czerwonymi punktami na mapie.

Najedź kursorem aby zobaczyć nazwę stacji.

Kliknij aby zobaczyć obserwacje i prognozy pogody.

Aby zmienić mapę: kliknij na zielony przycisk z czarnym krzyżykiem, aby powiększyć; na zielony przycisk z myślnikiem, aby pomniejszyć; na zielone strzałki, aby przejść do map sąsiednich.


METAR-TAF: